sensor_id;sensor_type;location;lat;lon;timestamp;temperature;humidity
47618;DHT22;33336;36.728;-4.414;2023-09-18T00:01:10;25.10;95.60
47618;DHT22;33336;36.728;-4.414;2023-09-18T00:06:14;25.10;95.60
47618;DHT22;33336;36.728;-4.414;2023-09-18T00:11:18;24.90;96.00
47618;DHT22;33336;36.728;-4.414;2023-09-18T00:16:21;24.80;96.00
47618;DHT22;33336;36.728;-4.414;2023-09-18T00:21:28;24.70;96.20
47618;DHT22;33336;36.728;-4.414;2023-09-18T00:26:31;24.80;96.10
47618;DHT22;33336;36.728;-4.414;2023-09-18T00:31:35;24.70;95.90
47618;DHT22;33336;36.728;-4.414;2023-09-18T00:36:39;24.70;95.90
47618;DHT22;33336;36.728;-4.414;2023-09-18T00:41:43;24.10;96.30
47618;DHT22;33336;36.728;-4.414;2023-09-18T00:46:51;24.30;96.40
47618;DHT22;33336;36.728;-4.414;2023-09-18T00:51:57;24.00;96.40
47618;DHT22;33336;36.728;-4.414;2023-09-18T00:57:00;24.40;96.30
47618;DHT22;33336;36.728;-4.414;2023-09-18T01:02:04;24.70;96.20
47618;DHT22;33336;36.728;-4.414;2023-09-18T01:07:09;24.70;96.00
47618;DHT22;33336;36.728;-4.414;2023-09-18T01:12:18;24.50;96.60
47618;DHT22;33336;36.728;-4.414;2023-09-18T01:17:23;24.10;97.20
47618;DHT22;33336;36.728;-4.414;2023-09-18T01:22:30;23.90;97.30
47618;DHT22;33336;36.728;-4.414;2023-09-18T01:27:34;23.60;98.00
47618;DHT22;33336;36.728;-4.414;2023-09-18T01:32:38;24.00;97.70
47618;DHT22;33336;36.728;-4.414;2023-09-18T01:37:43;23.80;97.80
47618;DHT22;33336;36.728;-4.414;2023-09-18T01:42:47;23.40;98.40
47618;DHT22;33336;36.728;-4.414;2023-09-18T01:47:50;23.40;98.60
47618;DHT22;33336;36.728;-4.414;2023-09-18T01:52:55;23.40;98.60
47618;DHT22;33336;36.728;-4.414;2023-09-18T01:57:58;23.70;98.40
47618;DHT22;33336;36.728;-4.414;2023-09-18T02:03:04;23.60;98.40
47618;DHT22;33336;36.728;-4.414;2023-09-18T02:08:08;23.20;98.80
47618;DHT22;33336;36.728;-4.414;2023-09-18T02:13:11;23.20;98.80
47618;DHT22;33336;36.728;-4.414;2023-09-18T02:18:14;23.20;98.90
47618;DHT22;33336;36.728;-4.414;2023-09-18T02:23:21;23.20;98.90
47618;DHT22;33336;36.728;-4.414;2023-09-18T02:28:24;23.10;98.90
47618;DHT22;33336;36.728;-4.414;2023-09-18T02:33:27;23.30;98.80
47618;DHT22;33336;36.728;-4.414;2023-09-18T02:38:32;23.40;98.60
47618;DHT22;33336;36.728;-4.414;2023-09-18T02:43:35;23.10;98.80
47618;DHT22;33336;36.728;-4.414;2023-09-18T02:48:39;22.90;99.10
47618;DHT22;33336;36.728;-4.414;2023-09-18T02:53:43;22.80;99.20
47618;DHT22;33336;36.728;-4.414;2023-09-18T02:58:46;23.10;98.80
47618;DHT22;33336;36.728;-4.414;2023-09-18T03:03:49;23.00;98.90
47618;DHT22;33336;36.728;-4.414;2023-09-18T03:08:53;23.10;98.60
47618;DHT22;33336;36.728;-4.414;2023-09-18T03:13:57;23.00;98.60
47618;DHT22;33336;36.728;-4.414;2023-09-18T03:19:00;22.70;98.70
47618;DHT22;33336;36.728;-4.414;2023-09-18T03:24:06;22.80;98.50
47618;DHT22;33336;36.728;-4.414;2023-09-18T03:29:09;22.50;98.40
47618;DHT22;33336;36.728;-4.414;2023-09-18T03:34:13;22.30;98.40
47618;DHT22;33336;36.728;-4.414;2023-09-18T03:39:17;22.30;98.30
47618;DHT22;33336;36.728;-4.414;2023-09-18T03:44:21;22.30;98.40
47618;DHT22;33336;36.728;-4.414;2023-09-18T03:49:24;22.30;98.60
47618;DHT22;33336;36.728;-4.414;2023-09-18T03:54:28;22.00;99.40
47618;DHT22;33336;36.728;-4.414;2023-09-18T03:59:31;22.40;98.80
47618;DHT22;33336;36.728;-4.414;2023-09-18T04:04:34;22.30;98.80
47618;DHT22;33336;36.728;-4.414;2023-09-18T04:09:38;22.00;99.10
47618;DHT22;33336;36.728;-4.414;2023-09-18T04:14:42;22.50;98.20
47618;DHT22;33336;36.728;-4.414;2023-09-18T04:19:45;22.30;98.40
47618;DHT22;33336;36.728;-4.414;2023-09-18T04:24:50;22.70;97.80
47618;DHT22;33336;36.728;-4.414;2023-09-18T04:29:52;22.80;97.30
47618;DHT22;33336;36.728;-4.414;2023-09-18T04:34:56;22.30;97.70
47618;DHT22;33336;36.728;-4.414;2023-09-18T04:40:00;22.30;98.10
47618;DHT22;33336;36.728;-4.414;2023-09-18T04:45:07;22.40;98.10
47618;DHT22;33336;36.728;-4.414;2023-09-18T04:50:10;22.30;98.70
47618;DHT22;33336;36.728;-4.414;2023-09-18T04:55:14;22.00;99.20
47618;DHT22;33336;36.728;-4.414;2023-09-18T05:00:18;22.10;99.40
47618;DHT22;33336;36.728;-4.414;2023-09-18T05:05:25;21.60;99.90
47618;DHT22;33336;36.728;-4.414;2023-09-18T05:10:29;21.50;99.90
47618;DHT22;33336;36.728;-4.414;2023-09-18T05:15:33;21.60;99.90
47618;DHT22;33336;36.728;-4.414;2023-09-18T05:20:36;21.30;99.90
47618;DHT22;33336;36.728;-4.414;2023-09-18T05:25:42;21.30;99.90
47618;DHT22;33336;36.728;-4.414;2023-09-18T05:30:45;21.00;99.90
47618;DHT22;33336;36.728;-4.414;2023-09-18T05:35:48;20.90;99.90
47618;DHT22;33336;36.728;-4.414;2023-09-18T05:40:53;21.00;99.90
47618;DHT22;33336;36.728;-4.414;2023-09-18T05:45:56;21.20;99.90
47618;DHT22;33336;36.728;-4.414;2023-09-18T05:51:00;21.10;99.90
47618;DHT22;33336;36.728;-4.414;2023-09-18T05:56:05;21.10;99.90
47618;DHT22;33336;36.728;-4.414;2023-09-18T06:01:08;21.30;99.90
47618;DHT22;33336;36.728;-4.414;2023-09-18T06:06:11;21.20;99.90
47618;DHT22;33336;36.728;-4.414;2023-09-18T06:11:15;21.40;99.90
47618;DHT22;33336;36.728;-4.414;2023-09-18T06:16:19;21.50;99.90
47618;DHT22;33336;36.728;-4.414;2023-09-18T06:21:22;21.60;99.90
47618;DHT22;33336;36.728;-4.414;2023-09-18T06:26:26;21.80;99.90
47618;DHT22;33336;36.728;-4.414;2023-09-18T06:31:30;21.70;99.90
47618;DHT22;33336;36.728;-4.414;2023-09-18T06:36:34;21.70;99.90
47618;DHT22;33336;36.728;-4.414;2023-09-18T06:41:38;21.80;99.90
47618;DHT22;33336;36.728;-4.414;2023-09-18T06:46:42;21.80;99.90
47618;DHT22;33336;36.728;-4.414;2023-09-18T06:51:45;21.70;99.90
47618;DHT22;33336;36.728;-4.414;2023-09-18T06:56:50;22.00;99.90
47618;DHT22;33336;36.728;-4.414;2023-09-18T07:01:53;21.90;99.90
47618;DHT22;33336;36.728;-4.414;2023-09-18T07:06:57;21.90;99.90
47618;DHT22;33336;36.728;-4.414;2023-09-18T07:12:01;22.10;99.90
47618;DHT22;33336;36.728;-4.414;2023-09-18T07:17:05;22.10;99.90
47618;DHT22;33336;36.728;-4.414;2023-09-18T07:22:08;22.10;99.90
47618;DHT22;33336;36.728;-4.414;2023-09-18T07:27:12;22.10;99.90
47618;DHT22;33336;36.728;-4.414;2023-09-18T07:32:15;22.20;99.90
47618;DHT22;33336;36.728;-4.414;2023-09-18T07:37:19;22.10;99.90
47618;DHT22;33336;36.728;-4.414;2023-09-18T07:42:26;22.20;99.70
47618;DHT22;33336;36.728;-4.414;2023-09-18T07:47:29;22.10;99.90
47618;DHT22;33336;36.728;-4.414;2023-09-18T07:52:33;22.20;99.60
47618;DHT22;33336;36.728;-4.414;2023-09-18T07:57:37;22.10;99.50
47618;DHT22;33336;36.728;-4.414;2023-09-18T08:02:41;22.20;99.80
47618;DHT22;33336;36.728;-4.414;2023-09-18T08:07:45;22.00;99.90
47618;DHT22;33336;36.728;-4.414;2023-09-18T08:12:50;22.00;99.90
47618;DHT22;33336;36.728;-4.414;2023-09-18T08:17:54;21.90;99.90
47618;DHT22;33336;36.728;-4.414;2023-09-18T08:22:57;22.00;99.90
47618;DHT22;33336;36.728;-4.414;2023-09-18T08:28:05;22.20;99.70
47618;DHT22;33336;36.728;-4.414;2023-09-18T08:33:07;22.20;99.90
47618;DHT22;33336;36.728;-4.414;2023-09-18T08:38:11;22.20;99.60
47618;DHT22;33336;36.728;-4.414;2023-09-18T08:43:16;22.70;99.60
47618;DHT22;33336;36.728;-4.414;2023-09-18T08:48:21;22.70;99.20
47618;DHT22;33336;36.728;-4.414;2023-09-18T08:53:24;22.90;99.00
47618;DHT22;33336;36.728;-4.414;2023-09-18T08:58:32;23.10;98.70
47618;DHT22;33336;36.728;-4.414;2023-09-18T09:03:37;23.00;98.50
47618;DHT22;33336;36.728;-4.414;2023-09-18T09:08:40;23.10;98.70
47618;DHT22;33336;36.728;-4.414;2023-09-18T09:13:44;23.30;98.20
47618;DHT22;33336;36.728;-4.414;2023-09-18T09:18:49;23.70;97.70
47618;DHT22;33336;36.728;-4.414;2023-09-18T09:23:53;23.80;97.40
47618;DHT22;33336;36.728;-4.414;2023-09-18T09:29:14;23.80;96.90
47618;DHT22;33336;36.728;-4.414;2023-09-18T09:34:25;23.70;96.80
47618;DHT22;33336;36.728;-4.414;2023-09-18T09:39:29;24.00;96.50
47618;DHT22;33336;36.728;-4.414;2023-09-18T09:44:34;24.30;96.30
47618;DHT22;33336;36.728;-4.414;2023-09-18T09:49:45;24.70;96.10
47618;DHT22;33336;36.728;-4.414;2023-09-18T09:54:48;24.90;95.10
47618;DHT22;33336;36.728;-4.414;2023-09-18T10:00:03;25.30;95.20
47618;DHT22;33336;36.728;-4.414;2023-09-18T10:05:16;25.50;94.70
47618;DHT22;33336;36.728;-4.414;2023-09-18T10:10:21;25.50;94.00
47618;DHT22;33336;36.728;-4.414;2023-09-18T10:15:26;25.80;93.00
47618;DHT22;33336;36.728;-4.414;2023-09-18T10:20:30;25.90;92.80
47618;DHT22;33336;36.728;-4.414;2023-09-18T10:25:33;25.90;92.80
47618;DHT22;33336;36.728;-4.414;2023-09-18T10:30:38;26.30;92.30
47618;DHT22;33336;36.728;-4.414;2023-09-18T10:35:42;26.60;92.10
47618;DHT22;33336;36.728;-4.414;2023-09-18T10:40:48;26.70;91.40
47618;DHT22;33336;36.728;-4.414;2023-09-18T10:45:53;26.90;91.00
47618;DHT22;33336;36.728;-4.414;2023-09-18T10:50:56;26.80;90.70
47618;DHT22;33336;36.728;-4.414;2023-09-18T10:56:01;26.80;90.50
47618;DHT22;33336;36.728;-4.414;2023-09-18T11:01:10;26.90;89.80
47618;DHT22;33336;36.728;-4.414;2023-09-18T11:06:13;27.20;89.30
47618;DHT22;33336;36.728;-4.414;2023-09-18T11:11:19;27.40;89.10
47618;DHT22;33336;36.728;-4.414;2023-09-18T11:16:36;27.70;88.10
47618;DHT22;33336;36.728;-4.414;2023-09-18T11:21:42;27.50;89.70
47618;DHT22;33336;36.728;-4.414;2023-09-18T11:26:48;27.10;94.30
47618;DHT22;33336;36.728;-4.414;2023-09-18T11:31:54;26.80;96.20
47618;DHT22;33336;36.728;-4.414;2023-09-18T11:36:58;26.80;95.70
47618;DHT22;33336;36.728;-4.414;2023-09-18T11:42:12;26.70;95.70
47618;DHT22;33336;36.728;-4.414;2023-09-18T11:47:17;26.60;95.00
47618;DHT22;33336;36.728;-4.414;2023-09-18T11:52:24;26.30;95.00
47618;DHT22;33336;36.728;-4.414;2023-09-18T11:57:27;26.30;95.00
47618;DHT22;33336;36.728;-4.414;2023-09-18T12:02:32;26.60;95.20
47618;DHT22;33336;36.728;-4.414;2023-09-18T12:07:36;26.30;95.30
47618;DHT22;33336;36.728;-4.414;2023-09-18T12:12:42;26.60;95.20
47618;DHT22;33336;36.728;-4.414;2023-09-18T12:17:46;26.50;94.80
47618;DHT22;33336;36.728;-4.414;2023-09-18T12:22:51;26.70;94.40
47618;DHT22;33336;36.728;-4.414;2023-09-18T12:27:55;26.60;95.40
47618;DHT22;33336;36.728;-4.414;2023-09-18T12:33:01;26.80;95.80
47618;DHT22;33336;36.728;-4.414;2023-09-18T12:38:13;26.90;96.30
47618;DHT22;33336;36.728;-4.414;2023-09-18T12:43:18;26.50;96.60
47618;DHT22;33336;36.728;-4.414;2023-09-18T12:48:23;26.70;97.70
47618;DHT22;33336;36.728;-4.414;2023-09-18T12:53:27;27.40;96.30
47618;DHT22;33336;36.728;-4.414;2023-09-18T12:58:30;27.40;95.40
47618;DHT22;33336;36.728;-4.414;2023-09-18T13:03:40;28.10;99.90
47618;DHT22;33336;36.728;-4.414;2023-09-18T13:08:44;27.40;96.30
47618;DHT22;33336;36.728;-4.414;2023-09-18T13:13:57;27.50;95.80
47618;DHT22;33336;36.728;-4.414;2023-09-18T13:19:05;27.80;94.00
47618;DHT22;33336;36.728;-4.414;2023-09-18T13:24:24;28.30;92.80
47618;DHT22;33336;36.728;-4.414;2023-09-18T13:29:27;28.60;91.60
47618;DHT22;33336;36.728;-4.414;2023-09-18T13:34:32;28.10;92.70
47618;DHT22;33336;36.728;-4.414;2023-09-18T13:39:37;28.40;92.60
47618;DHT22;33336;36.728;-4.414;2023-09-18T13:44:40;28.80;92.50
47618;DHT22;33336;36.728;-4.414;2023-09-18T13:49:44;29.00;92.40
47618;DHT22;33336;36.728;-4.414;2023-09-18T13:54:48;29.40;92.20
47618;DHT22;33336;36.728;-4.414;2023-09-18T13:59:52;29.20;92.40
47618;DHT22;33336;36.728;-4.414;2023-09-18T14:04:57;29.50;91.40
47618;DHT22;33336;36.728;-4.414;2023-09-18T14:10:00;30.10;91.20
47618;DHT22;33336;36.728;-4.414;2023-09-18T14:15:06;29.20;92.00
47618;DHT22;33336;36.728;-4.414;2023-09-18T14:20:11;29.90;92.50
47618;DHT22;33336;36.728;-4.414;2023-09-18T14:25:14;30.60;91.40
47618;DHT22;33336;36.728;-4.414;2023-09-18T14:30:17;30.90;90.60
47618;DHT22;33336;36.728;-4.414;2023-09-18T14:35:22;31.80;90.20
47618;DHT22;33336;36.728;-4.414;2023-09-18T14:40:25;32.30;90.30
47618;DHT22;33336;36.728;-4.414;2023-09-18T14:45:29;32.10;90.10
47618;DHT22;33336;36.728;-4.414;2023-09-18T14:50:33;32.60;90.20
47618;DHT22;33336;36.728;-4.414;2023-09-18T14:55:37;33.20;89.10
47618;DHT22;33336;36.728;-4.414;2023-09-18T15:00:41;33.20;89.40
47618;DHT22;33336;36.728;-4.414;2023-09-18T15:05:47;33.30;91.00
47618;DHT22;33336;36.728;-4.414;2023-09-18T15:10:52;32.80;91.10
47618;DHT22;33336;36.728;-4.414;2023-09-18T15:15:56;32.00;91.90
47618;DHT22;33336;36.728;-4.414;2023-09-18T15:21:01;31.80;92.70
47618;DHT22;33336;36.728;-4.414;2023-09-18T15:26:04;33.00;92.80
47618;DHT22;33336;36.728;-4.414;2023-09-18T15:31:08;31.60;93.10
47618;DHT22;33336;36.728;-4.414;2023-09-18T15:36:13;32.30;93.30
47618;DHT22;33336;36.728;-4.414;2023-09-18T15:41:16;31.50;94.00
47618;DHT22;33336;36.728;-4.414;2023-09-18T15:46:20;32.30;93.70
47618;DHT22;33336;36.728;-4.414;2023-09-18T15:51:24;32.60;94.70
47618;DHT22;33336;36.728;-4.414;2023-09-18T15:56:30;33.30;93.60
47618;DHT22;33336;36.728;-4.414;2023-09-18T16:01:34;34.10;93.10
47618;DHT22;33336;36.728;-4.414;2023-09-18T16:06:41;33.40;93.30
47618;DHT22;33336;36.728;-4.414;2023-09-18T16:11:45;35.00;92.50
47618;DHT22;33336;36.728;-4.414;2023-09-18T16:16:48;35.30;91.00
47618;DHT22;33336;36.728;-4.414;2023-09-18T16:21:52;33.30;92.90
47618;DHT22;33336;36.728;-4.414;2023-09-18T16:26:56;32.80;94.70
47618;DHT22;33336;36.728;-4.414;2023-09-18T16:31:59;33.20;94.40
47618;DHT22;33336;36.728;-4.414;2023-09-18T16:37:03;32.00;95.50
47618;DHT22;33336;36.728;-4.414;2023-09-18T16:42:07;32.80;95.40
47618;DHT22;33336;36.728;-4.414;2023-09-18T16:47:10;34.00;94.60
47618;DHT22;33336;36.728;-4.414;2023-09-18T16:52:14;33.10;94.60
47618;DHT22;33336;36.728;-4.414;2023-09-18T16:57:18;34.10;94.70
47618;DHT22;33336;36.728;-4.414;2023-09-18T17:02:21;36.00;93.20
47618;DHT22;33336;36.728;-4.414;2023-09-18T17:07:26;36.10;92.80
47618;DHT22;33336;36.728;-4.414;2023-09-18T17:12:29;37.00;91.90
47618;DHT22;33336;36.728;-4.414;2023-09-18T17:17:33;36.50;92.00
47618;DHT22;33336;36.728;-4.414;2023-09-18T17:22:37;36.90;91.80
47618;DHT22;33336;36.728;-4.414;2023-09-18T17:27:41;37.30;91.50
47618;DHT22;33336;36.728;-4.414;2023-09-18T17:32:44;37.50;91.40
47618;DHT22;33336;36.728;-4.414;2023-09-18T17:37:49;37.00;91.40
47618;DHT22;33336;36.728;-4.414;2023-09-18T17:42:52;35.80;91.70
47618;DHT22;33336;36.728;-4.414;2023-09-18T17:47:56;35.00;91.90
47618;DHT22;33336;36.728;-4.414;2023-09-18T17:53:00;34.20;92.20
47618;DHT22;33336;36.728;-4.414;2023-09-18T17:58:04;33.60;92.40
47618;DHT22;33336;36.728;-4.414;2023-09-18T18:03:07;33.10;92.90
47618;DHT22;33336;36.728;-4.414;2023-09-18T18:08:12;32.60;93.10
47618;DHT22;33336;36.728;-4.414;2023-09-18T18:13:15;32.10;93.30
47618;DHT22;33336;36.728;-4.414;2023-09-18T18:18:19;32.00;93.50
47618;DHT22;33336;36.728;-4.414;2023-09-18T18:23:23;32.00;93.50
47618;DHT22;33336;36.728;-4.414;2023-09-18T18:28:27;31.70;93.70
47618;DHT22;33336;36.728;-4.414;2023-09-18T18:33:30;31.40;93.80
47618;DHT22;33336;36.728;-4.414;2023-09-18T18:38:35;31.10;94.00
47618;DHT22;33336;36.728;-4.414;2023-09-18T18:43:38;30.60;94.00
47618;DHT22;33336;36.728;-4.414;2023-09-18T18:48:42;30.30;94.00
47618;DHT22;33336;36.728;-4.414;2023-09-18T18:53:46;29.90;93.90
47618;DHT22;33336;36.728;-4.414;2023-09-18T18:58:50;29.70;92.70
47618;DHT22;33336;36.728;-4.414;2023-09-18T19:03:53;30.10;91.90
47618;DHT22;33336;36.728;-4.414;2023-09-18T19:08:58;30.20;92.50
47618;DHT22;33336;36.728;-4.414;2023-09-18T19:14:01;30.30;91.40
47618;DHT22;33336;36.728;-4.414;2023-09-18T19:19:05;29.20;86.70
47618;DHT22;33336;36.728;-4.414;2023-09-18T19:24:09;28.90;88.60
47618;DHT22;33336;36.728;-4.414;2023-09-18T19:29:13;28.30;88.50
47618;DHT22;33336;36.728;-4.414;2023-09-18T19:34:17;28.70;87.80
47618;DHT22;33336;36.728;-4.414;2023-09-18T19:39:23;28.60;88.40
47618;DHT22;33336;36.728;-4.414;2023-09-18T19:44:26;28.00;89.30
47618;DHT22;33336;36.728;-4.414;2023-09-18T19:49:30;28.00;87.50
47618;DHT22;33336;36.728;-4.414;2023-09-18T19:54:34;27.70;88.70
47618;DHT22;33336;36.728;-4.414;2023-09-18T19:59:38;27.60;88.20
47618;DHT22;33336;36.728;-4.414;2023-09-18T20:04:41;27.90;89.20
47618;DHT22;33336;36.728;-4.414;2023-09-18T20:09:46;28.10;89.50
47618;DHT22;33336;36.728;-4.414;2023-09-18T20:14:49;27.90;87.60
47618;DHT22;33336;36.728;-4.414;2023-09-18T20:19:54;28.10;88.40
47618;DHT22;33336;36.728;-4.414;2023-09-18T20:24:58;28.00;88.20
47618;DHT22;33336;36.728;-4.414;2023-09-18T20:30:03;28.10;88.00
47618;DHT22;33336;36.728;-4.414;2023-09-18T20:35:07;27.70;87.90
47618;DHT22;33336;36.728;-4.414;2023-09-18T20:40:12;27.20;88.30
47618;DHT22;33336;36.728;-4.414;2023-09-18T20:45:15;26.90;89.40
47618;DHT22;33336;36.728;-4.414;2023-09-18T20:50:21;27.10;89.40
47618;DHT22;33336;36.728;-4.414;2023-09-18T20:55:25;27.10;89.20
47618;DHT22;33336;36.728;-4.414;2023-09-18T21:00:30;27.00;89.60
47618;DHT22;33336;36.728;-4.414;2023-09-18T21:05:33;26.40;89.70
47618;DHT22;33336;36.728;-4.414;2023-09-18T21:10:39;26.90;89.70
47618;DHT22;33336;36.728;-4.414;2023-09-18T21:15:42;26.60;89.60
47618;DHT22;33336;36.728;-4.414;2023-09-18T21:20:46;26.60;89.60
47618;DHT22;33336;36.728;-4.414;2023-09-18T21:25:50;26.50;89.60
47618;DHT22;33336;36.728;-4.414;2023-09-18T21:30:53;26.80;89.10
47618;DHT22;33336;36.728;-4.414;2023-09-18T21:35:56;27.20;89.60
47618;DHT22;33336;36.728;-4.414;2023-09-18T21:41:01;27.60;89.10
47618;DHT22;33336;36.728;-4.414;2023-09-18T21:46:04;27.70;88.90
47618;DHT22;33336;36.728;-4.414;2023-09-18T21:51:08;27.40;88.30
47618;DHT22;33336;36.728;-4.414;2023-09-18T21:56:17;27.00;88.20
47618;DHT22;33336;36.728;-4.414;2023-09-18T22:01:21;26.50;89.00
47618;DHT22;33336;36.728;-4.414;2023-09-18T22:06:24;26.70;88.80
47618;DHT22;33336;36.728;-4.414;2023-09-18T22:11:32;26.90;88.50
47618;DHT22;33336;36.728;-4.414;2023-09-18T22:16:35;26.20;89.60
47618;DHT22;33336;36.728;-4.414;2023-09-18T22:21:38;26.10;90.00
47618;DHT22;33336;36.728;-4.414;2023-09-18T22:26:42;26.30;90.00
47618;DHT22;33336;36.728;-4.414;2023-09-18T22:31:48;26.00;90.40
47618;DHT22;33336;36.728;-4.414;2023-09-18T22:36:51;26.00;90.20
47618;DHT22;33336;36.728;-4.414;2023-09-18T22:57:48;25.80;90.30
47618;DHT22;33336;36.728;-4.414;2023-09-18T23:02:53;25.70;90.30
47618;DHT22;33336;36.728;-4.414;2023-09-18T23:07:59;25.60;90.50
47618;DHT22;33336;36.728;-4.414;2023-09-18T23:13:06;25.40;90.60
47618;DHT22;33336;36.728;-4.414;2023-09-18T23:18:11;25.30;90.60
47618;DHT22;33336;36.728;-4.414;2023-09-18T23:23:18;25.40;90.50
47618;DHT22;33336;36.728;-4.414;2023-09-18T23:28:22;25.50;90.20
47618;DHT22;33336;36.728;-4.414;2023-09-18T23:33:26;25.40;90.20
47618;DHT22;33336;36.728;-4.414;2023-09-18T23:38:29;25.50;90.40
47618;DHT22;33336;36.728;-4.414;2023-09-18T23:43:34;25.00;90.80
47618;DHT22;33336;36.728;-4.414;2023-09-18T23:48:37;25.20;90.70
47618;DHT22;33336;36.728;-4.414;2023-09-18T23:53:44;25.40;90.60
47618;DHT22;33336;36.728;-4.414;2023-09-18T23:58:48;25.10;90.80
